sensor_id;sensor_type;location;lat;lon;timestamp;temperature;humidity
19138;DHT22;68178;52.188;5.598;2023-10-09T00:00:24;14.70;99.90
19138;DHT22;68178;52.188;5.598;2023-10-09T00:03:05;14.60;99.90
19138;DHT22;68178;52.188;5.598;2023-10-09T00:05:32;14.60;99.90
19138;DHT22;68178;52.188;5.598;2023-10-09T00:08:13;14.50;99.90
19138;DHT22;68178;52.188;5.598;2023-10-09T00:10:50;14.60;99.90
19138;DHT22;68178;52.188;5.598;2023-10-09T00:13:26;14.60;99.90
19138;DHT22;68178;52.188;5.598;2023-10-09T00:15:58;14.60;99.90
19138;DHT22;68178;52.188;5.598;2023-10-09T00:18:34;14.60;99.90
19138;DHT22;68178;52.188;5.598;2023-10-09T00:21:00;14.50;99.90
19138;DHT22;68178;52.188;5.598;2023-10-09T00:23:27;14.60;99.90
19138;DHT22;68178;52.188;5.598;2023-10-09T00:25:53;14.60;99.90
19138;DHT22;68178;52.188;5.598;2023-10-09T00:28:39;14.60;99.90
19138;DHT22;68178;52.188;5.598;2023-10-09T00:31:15;14.60;99.90
19138;DHT22;68178;52.188;5.598;2023-10-09T00:33:42;14.60;99.90
19138;DHT22;68178;52.188;5.598;2023-10-09T00:36:08;14.70;99.90
19138;DHT22;68178;52.188;5.598;2023-10-09T00:38:45;14.80;99.90
19138;DHT22;68178;52.188;5.598;2023-10-09T00:41:15;14.80;99.90
19138;DHT22;68178;52.188;5.598;2023-10-09T00:43:46;14.80;99.90
19138;DHT22;68178;52.188;5.598;2023-10-09T00:46:16;14.70;99.90
19138;DHT22;68178;52.188;5.598;2023-10-09T00:48:54;14.70;99.90
19138;DHT22;68178;52.188;5.598;2023-10-09T00:51:22;14.80;99.90
19138;DHT22;68178;52.188;5.598;2023-10-09T00:53:53;14.80;99.90
19138;DHT22;68178;52.188;5.598;2023-10-09T00:56:22;14.80;99.90
19138;DHT22;68178;52.188;5.598;2023-10-09T00:58:56;14.80;99.90
19138;DHT22;68178;52.188;5.598;2023-10-09T01:01:39;14.90;99.90
19138;DHT22;68178;52.188;5.598;2023-10-09T01:04:06;14.80;99.90
19138;DHT22;68178;52.188;5.598;2023-10-09T01:06:41;14.90;99.90
19138;DHT22;68178;52.188;5.598;2023-10-09T01:09:13;14.90;99.90
19138;DHT22;68178;52.188;5.598;2023-10-09T01:11:43;15.00;99.90
19138;DHT22;68178;52.188;5.598;2023-10-09T01:14:24;15.00;99.90
19138;DHT22;68178;52.188;5.598;2023-10-09T01:16:49;15.00;99.90
19138;DHT22;68178;52.188;5.598;2023-10-09T01:19:19;15.10;99.90
19138;DHT22;68178;52.188;5.598;2023-10-09T01:21:52;15.10;99.90
19138;DHT22;68178;52.188;5.598;2023-10-09T01:24:18;15.10;99.90
19138;DHT22;68178;52.188;5.598;2023-10-09T01:26:48;15.10;99.90
19138;DHT22;68178;52.188;5.598;2023-10-09T01:29:19;15.20;99.90
19138;DHT22;68178;52.188;5.598;2023-10-09T01:31:46;15.20;99.90
19138;DHT22;68178;52.188;5.598;2023-10-09T01:34:28;15.30;99.90
19138;DHT22;68178;52.188;5.598;2023-10-09T01:37:21;15.30;99.90
19138;DHT22;68178;52.188;5.598;2023-10-09T01:39:57;15.30;99.90
19138;DHT22;68178;52.188;5.598;2023-10-09T01:42:50;15.40;99.90
19138;DHT22;68178;52.188;5.598;2023-10-09T01:45:16;15.40;99.90
19138;DHT22;68178;52.188;5.598;2023-10-09T01:47:44;15.40;99.90
19138;DHT22;68178;52.188;5.598;2023-10-09T01:50:36;15.50;99.90
19138;DHT22;68178;52.188;5.598;2023-10-09T01:53:02;15.50;99.90
19138;DHT22;68178;52.188;5.598;2023-10-09T01:55:31;15.50;99.90
19138;DHT22;68178;52.188;5.598;2023-10-09T01:58:09;15.60;99.90
19138;DHT22;68178;52.188;5.598;2023-10-09T02:00:42;15.60;99.90
19138;DHT22;68178;52.188;5.598;2023-10-09T02:03:13;15.60;99.90
19138;DHT22;68178;52.188;5.598;2023-10-09T02:05:49;15.70;99.90
19138;DHT22;68178;52.188;5.598;2023-10-09T02:08:19;15.60;99.90
19138;DHT22;68178;52.188;5.598;2023-10-09T02:10:52;15.70;99.90
19138;DHT22;68178;52.188;5.598;2023-10-09T02:13:21;15.70;99.90
19138;DHT22;68178;52.188;5.598;2023-10-09T02:15:56;15.70;99.90
19138;DHT22;68178;52.188;5.598;2023-10-09T02:18:24;15.80;99.90
19138;DHT22;68178;52.188;5.598;2023-10-09T02:23:28;15.80;99.90
19138;DHT22;68178;52.188;5.598;2023-10-09T02:26:12;15.80;99.90
19138;DHT22;68178;52.188;5.598;2023-10-09T02:28:43;15.90;99.90
19138;DHT22;68178;52.188;5.598;2023-10-09T02:31:10;15.90;99.90
19138;DHT22;68178;52.188;5.598;2023-10-09T02:33:36;15.80;99.90
19138;DHT22;68178;52.188;5.598;2023-10-09T02:36:07;15.90;99.90
19138;DHT22;68178;52.188;5.598;2023-10-09T02:38:34;15.90;99.90
19138;DHT22;68178;52.188;5.598;2023-10-09T02:41:01;15.90;99.90
19138;DHT22;68178;52.188;5.598;2023-10-09T02:43:34;15.90;99.90
19138;DHT22;68178;52.188;5.598;2023-10-09T02:46:19;16.00;99.90
19138;DHT22;68178;52.188;5.598;2023-10-09T02:48:48;16.10;99.90
19138;DHT22;68178;52.188;5.598;2023-10-09T02:51:22;16.10;99.90
19138;DHT22;68178;52.188;5.598;2023-10-09T02:53:54;16.10;99.90
19138;DHT22;68178;52.188;5.598;2023-10-09T02:56:21;16.10;99.90
19138;DHT22;68178;52.188;5.598;2023-10-09T02:58:53;16.10;99.90
19138;DHT22;68178;52.188;5.598;2023-10-09T03:01:19;16.10;99.90
19138;DHT22;68178;52.188;5.598;2023-10-09T03:03:45;16.00;99.90
19138;DHT22;68178;52.188;5.598;2023-10-09T03:06:15;16.00;99.90
19138;DHT22;68178;52.188;5.598;2023-10-09T03:08:44;16.00;99.90
19138;DHT22;68178;52.188;5.598;2023-10-09T03:11:13;16.10;99.90
19138;DHT22;68178;52.188;5.598;2023-10-09T03:13:43;16.20;99.90
19138;DHT22;68178;52.188;5.598;2023-10-09T03:16:10;16.10;99.90
19138;DHT22;68178;52.188;5.598;2023-10-09T03:18:49;16.10;99.90
19138;DHT22;68178;52.188;5.598;2023-10-09T03:21:15;16.10;99.90
19138;DHT22;68178;52.188;5.598;2023-10-09T03:23:46;16.20;99.90
19138;DHT22;68178;52.188;5.598;2023-10-09T03:26:17;16.20;99.90
19138;DHT22;68178;52.188;5.598;2023-10-09T03:28:48;16.10;99.90
19138;DHT22;68178;52.188;5.598;2023-10-09T03:31:14;16.20;99.90
19138;DHT22;68178;52.188;5.598;2023-10-09T03:33:40;16.10;99.90
19138;DHT22;68178;52.188;5.598;2023-10-09T03:36:07;16.20;99.90
19138;DHT22;68178;52.188;5.598;2023-10-09T03:38:40;16.20;99.90
19138;DHT22;68178;52.188;5.598;2023-10-09T03:41:07;16.20;99.90
19138;DHT22;68178;52.188;5.598;2023-10-09T03:43:38;16.30;99.90
19138;DHT22;68178;52.188;5.598;2023-10-09T03:46:10;16.20;99.90
19138;DHT22;68178;52.188;5.598;2023-10-09T03:48:52;16.20;99.90
19138;DHT22;68178;52.188;5.598;2023-10-09T03:51:18;16.20;99.90
19138;DHT22;68178;52.188;5.598;2023-10-09T03:53:47;16.30;99.90
19138;DHT22;68178;52.188;5.598;2023-10-09T03:56:13;16.40;99.90
19138;DHT22;68178;52.188;5.598;2023-10-09T03:58:45;16.30;99.90
19138;DHT22;68178;52.188;5.598;2023-10-09T04:01:13;16.20;99.90
19138;DHT22;68178;52.188;5.598;2023-10-09T04:03:51;16.20;99.90
19138;DHT22;68178;52.188;5.598;2023-10-09T04:06:23;16.20;99.90
19138;DHT22;68178;52.188;5.598;2023-10-09T04:08:54;16.20;99.90
19138;DHT22;68178;52.188;5.598;2023-10-09T04:11:20;16.30;99.90
19138;DHT22;68178;52.188;5.598;2023-10-09T04:13:48;16.30;99.90
19138;DHT22;68178;52.188;5.598;2023-10-09T04:16:25;16.30;99.90
19138;DHT22;68178;52.188;5.598;2023-10-09T04:18:57;16.30;99.90
19138;DHT22;68178;52.188;5.598;2023-10-09T04:21:23;16.30;99.90
19138;DHT22;68178;52.188;5.598;2023-10-09T04:24:06;16.30;99.90
19138;DHT22;68178;52.188;5.598;2023-10-09T04:26:39;16.30;99.90
19138;DHT22;68178;52.188;5.598;2023-10-09T04:29:10;16.30;99.90
19138;DHT22;68178;52.188;5.598;2023-10-09T04:31:46;16.30;99.90
19138;DHT22;68178;52.188;5.598;2023-10-09T04:34:19;16.40;99.90
19138;DHT22;68178;52.188;5.598;2023-10-09T04:36:49;16.40;99.90
19138;DHT22;68178;52.188;5.598;2023-10-09T04:39:16;16.40;99.90
19138;DHT22;68178;52.188;5.598;2023-10-09T04:41:51;16.40;99.90
19138;DHT22;68178;52.188;5.598;2023-10-09T04:44:18;16.40;99.90
19138;DHT22;68178;52.188;5.598;2023-10-09T04:46:47;16.50;99.90
19138;DHT22;68178;52.188;5.598;2023-10-09T04:49:32;16.50;99.90
19138;DHT22;68178;52.188;5.598;2023-10-09T04:52:18;16.40;99.90
19138;DHT22;68178;52.188;5.598;2023-10-09T04:55:05;16.50;99.90
19138;DHT22;68178;52.188;5.598;2023-10-09T04:57:34;16.40;99.90
19138;DHT22;68178;52.188;5.598;2023-10-09T05:02:53;16.50;99.90
19138;DHT22;68178;52.188;5.598;2023-10-09T05:05:26;16.50;99.90
19138;DHT22;68178;52.188;5.598;2023-10-09T05:08:11;16.50;99.90
19138;DHT22;68178;52.188;5.598;2023-10-09T05:10:47;16.60;99.90
19138;DHT22;68178;52.188;5.598;2023-10-09T05:13:34;16.70;99.90
19138;DHT22;68178;52.188;5.598;2023-10-09T05:18:49;16.70;99.90
19138;DHT22;68178;52.188;5.598;2023-10-09T05:21:36;16.80;99.90
19138;DHT22;68178;52.188;5.598;2023-10-09T05:24:04;16.80;99.90
19138;DHT22;68178;52.188;5.598;2023-10-09T05:26:46;16.80;99.90
19138;DHT22;68178;52.188;5.598;2023-10-09T05:29:25;16.80;99.90
19138;DHT22;68178;52.188;5.598;2023-10-09T05:32:14;16.80;99.90
19138;DHT22;68178;52.188;5.598;2023-10-09T05:34:43;16.70;99.90
19138;DHT22;68178;52.188;5.598;2023-10-09T05:37:29;16.70;99.90
19138;DHT22;68178;52.188;5.598;2023-10-09T05:40:09;16.80;99.90
19138;DHT22;68178;52.188;5.598;2023-10-09T05:42:44;16.80;99.90
19138;DHT22;68178;52.188;5.598;2023-10-09T05:45:15;16.80;99.90
19138;DHT22;68178;52.188;5.598;2023-10-09T05:47:59;16.90;99.90
19138;DHT22;68178;52.188;5.598;2023-10-09T05:51:03;16.90;99.90
19138;DHT22;68178;52.188;5.598;2023-10-09T05:53:34;17.00;99.90
19138;DHT22;68178;52.188;5.598;2023-10-09T05:56:09;17.10;99.90
19138;DHT22;68178;52.188;5.598;2023-10-09T05:58:53;17.00;99.90
19138;DHT22;68178;52.188;5.598;2023-10-09T06:01:39;17.20;99.90
19138;DHT22;68178;52.188;5.598;2023-10-09T06:04:23;17.40;99.90
19138;DHT22;68178;52.188;5.598;2023-10-09T06:07:00;17.30;99.90
19138;DHT22;68178;52.188;5.598;2023-10-09T06:09:36;17.40;99.90
19138;DHT22;68178;52.188;5.598;2023-10-09T06:12:20;17.40;99.90
19138;DHT22;68178;52.188;5.598;2023-10-09T06:15:07;17.30;99.90
19138;DHT22;68178;52.188;5.598;2023-10-09T06:18:05;17.30;99.90
19138;DHT22;68178;52.188;5.598;2023-10-09T06:20:49;17.40;99.90
19138;DHT22;68178;52.188;5.598;2023-10-09T06:23:35;17.50;99.90
19138;DHT22;68178;52.188;5.598;2023-10-09T06:26:34;17.50;99.90
19138;DHT22;68178;52.188;5.598;2023-10-09T06:29:00;17.60;99.90
19138;DHT22;68178;52.188;5.598;2023-10-09T06:31:40;17.60;99.90
19138;DHT22;68178;52.188;5.598;2023-10-09T06:34:26;17.50;99.90
19138;DHT22;68178;52.188;5.598;2023-10-09T06:37:01;17.30;99.90
19138;DHT22;68178;52.188;5.598;2023-10-09T06:39:55;17.30;99.90
19138;DHT22;68178;52.188;5.598;2023-10-09T06:42:24;17.30;99.90
19138;DHT22;68178;52.188;5.598;2023-10-09T06:45:06;17.20;99.90
19138;DHT22;68178;52.188;5.598;2023-10-09T06:47:40;17.30;99.90
19138;DHT22;68178;52.188;5.598;2023-10-09T06:50:12;17.30;99.90
19138;DHT22;68178;52.188;5.598;2023-10-09T06:52:53;17.40;99.90
19138;DHT22;68178;52.188;5.598;2023-10-09T06:55:37;17.50;99.90
19138;DHT22;68178;52.188;5.598;2023-10-09T07:00:49;17.60;99.90
19138;DHT22;68178;52.188;5.598;2023-10-09T07:03:24;17.70;99.90
19138;DHT22;68178;52.188;5.598;2023-10-09T07:06:08;17.70;99.90
19138;DHT22;68178;52.188;5.598;2023-10-09T07:08:50;17.70;99.90
19138;DHT22;68178;52.188;5.598;2023-10-09T07:11:37;17.70;99.90
19138;DHT22;68178;52.188;5.598;2023-10-09T07:14:12;17.60;99.90
19138;DHT22;68178;52.188;5.598;2023-10-09T07:17:02;17.60;99.90
19138;DHT22;68178;52.188;5.598;2023-10-09T07:19:44;17.60;99.90
19138;DHT22;68178;52.188;5.598;2023-10-09T07:22:13;17.60;99.90
19138;DHT22;68178;52.188;5.598;2023-10-09T07:27:28;17.70;99.90
19138;DHT22;68178;52.188;5.598;2023-10-09T07:30:19;17.70;99.90
19138;DHT22;68178;52.188;5.598;2023-10-09T07:32:57;17.70;99.90
19138;DHT22;68178;52.188;5.598;2023-10-09T07:35:47;17.60;99.90
19138;DHT22;68178;52.188;5.598;2023-10-09T07:38:24;17.60;99.90
19138;DHT22;68178;52.188;5.598;2023-10-09T07:40:54;17.70;99.90
19138;DHT22;68178;52.188;5.598;2023-10-09T07:43:37;17.70;99.90
19138;DHT22;68178;52.188;5.598;2023-10-09T07:46:10;17.70;99.90
19138;DHT22;68178;52.188;5.598;2023-10-09T07:48:55;17.70;99.90
19138;DHT22;68178;52.188;5.598;2023-10-09T07:51:22;17.80;99.90
19138;DHT22;68178;52.188;5.598;2023-10-09T07:54:00;17.80;99.90
19138;DHT22;68178;52.188;5.598;2023-10-09T07:56:41;17.80;99.90
19138;DHT22;68178;52.188;5.598;2023-10-09T07:59:13;17.90;99.90
19138;DHT22;68178;52.188;5.598;2023-10-09T08:01:48;17.90;99.90
19138;DHT22;68178;52.188;5.598;2023-10-09T08:04:21;18.00;99.90
19138;DHT22;68178;52.188;5.598;2023-10-09T08:07:14;18.00;99.90
19138;DHT22;68178;52.188;5.598;2023-10-09T08:09:54;18.00;99.90
19138;DHT22;68178;52.188;5.598;2023-10-09T08:12:38;18.30;99.90
19138;DHT22;68178;52.188;5.598;2023-10-09T08:15:10;18.30;99.90
19138;DHT22;68178;52.188;5.598;2023-10-09T08:17:51;18.30;99.90
19138;DHT22;68178;52.188;5.598;2023-10-09T08:20:27;18.30;99.90
19138;DHT22;68178;52.188;5.598;2023-10-09T08:22:55;18.40;99.90
19138;DHT22;68178;52.188;5.598;2023-10-09T08:25:27;18.40;99.90
19138;DHT22;68178;52.188;5.598;2023-10-09T08:28:00;18.50;99.90
19138;DHT22;68178;52.188;5.598;2023-10-09T08:30:45;18.60;99.90
19138;DHT22;68178;52.188;5.598;2023-10-09T08:33:20;18.60;99.90
19138;DHT22;68178;52.188;5.598;2023-10-09T08:35:56;18.80;99.90
19138;DHT22;68178;52.188;5.598;2023-10-09T08:38:29;18.70;99.90
19138;DHT22;68178;52.188;5.598;2023-10-09T08:41:10;18.80;99.90
19138;DHT22;68178;52.188;5.598;2023-10-09T08:43:51;18.80;99.90
19138;DHT22;68178;52.188;5.598;2023-10-09T08:46:25;18.90;99.90
19138;DHT22;68178;52.188;5.598;2023-10-09T08:48:55;18.90;99.90
19138;DHT22;68178;52.188;5.598;2023-10-09T08:51:24;18.90;99.90
19138;DHT22;68178;52.188;5.598;2023-10-09T08:53:51;19.00;99.90
19138;DHT22;68178;52.188;5.598;2023-10-09T08:56:18;19.00;99.90
19138;DHT22;68178;52.188;5.598;2023-10-09T08:58:51;19.10;99.90
19138;DHT22;68178;52.188;5.598;2023-10-09T09:01:18;19.10;99.90
19138;DHT22;68178;52.188;5.598;2023-10-09T09:03:46;19.10;99.90
19138;DHT22;68178;52.188;5.598;2023-10-09T09:06:11;19.00;99.90
19138;DHT22;68178;52.188;5.598;2023-10-09T09:08:39;19.10;99.90
19138;DHT22;68178;52.188;5.598;2023-10-09T09:11:10;19.20;99.90
19138;DHT22;68178;52.188;5.598;2023-10-09T09:16:15;19.30;99.90
19138;DHT22;68178;52.188;5.598;2023-10-09T09:18:53;19.30;99.90
19138;DHT22;68178;52.188;5.598;2023-10-09T09:21:27;19.40;99.90
19138;DHT22;68178;52.188;5.598;2023-10-09T09:24:00;19.40;99.90
19138;DHT22;68178;52.188;5.598;2023-10-09T09:26:36;19.50;99.90
19138;DHT22;68178;52.188;5.598;2023-10-09T09:29:12;19.60;99.90
19138;DHT22;68178;52.188;5.598;2023-10-09T09:31:54;19.60;99.90
19138;DHT22;68178;52.188;5.598;2023-10-09T09:34:21;19.70;99.90
19138;DHT22;68178;52.188;5.598;2023-10-09T09:36:56;19.70;99.90
19138;DHT22;68178;52.188;5.598;2023-10-09T09:39:24;19.70;99.90
19138;DHT22;68178;52.188;5.598;2023-10-09T09:41:58;19.70;99.90
19138;DHT22;68178;52.188;5.598;2023-10-09T09:44:31;19.80;99.90
19138;DHT22;68178;52.188;5.598;2023-10-09T09:47:00;19.80;99.90
19138;DHT22;68178;52.188;5.598;2023-10-09T09:49:30;19.80;99.90
19138;DHT22;68178;52.188;5.598;2023-10-09T09:52:01;19.90;99.90
19138;DHT22;68178;52.188;5.598;2023-10-09T09:54:28;20.00;99.90
19138;DHT22;68178;52.188;5.598;2023-10-09T09:56:59;19.90;99.90
19138;DHT22;68178;52.188;5.598;2023-10-09T09:59:37;20.00;99.90
19138;DHT22;68178;52.188;5.598;2023-10-09T10:02:06;19.90;99.90
19138;DHT22;68178;52.188;5.598;2023-10-09T10:04:35;20.00;99.90
19138;DHT22;68178;52.188;5.598;2023-10-09T10:07:04;20.00;99.90
19138;DHT22;68178;52.188;5.598;2023-10-09T10:09:38;20.00;99.90
19138;DHT22;68178;52.188;5.598;2023-10-09T10:12:04;20.00;99.90
19138;DHT22;68178;52.188;5.598;2023-10-09T10:15:04;19.90;99.90
19138;DHT22;68178;52.188;5.598;2023-10-09T10:20:24;20.00;99.90
19138;DHT22;68178;52.188;5.598;2023-10-09T10:22:51;20.10;99.90
19138;DHT22;68178;52.188;5.598;2023-10-09T10:28:23;20.10;99.90
19138;DHT22;68178;52.188;5.598;2023-10-09T10:31:05;20.20;99.90
19138;DHT22;68178;52.188;5.598;2023-10-09T10:36:22;20.40;99.90
19138;DHT22;68178;52.188;5.598;2023-10-09T10:39:02;20.40;99.90
19138;DHT22;68178;52.188;5.598;2023-10-09T10:41:54;20.50;99.90
19138;DHT22;68178;52.188;5.598;2023-10-09T10:44:29;20.70;99.90
19138;DHT22;68178;52.188;5.598;2023-10-09T10:47:09;20.60;99.90
19138;DHT22;68178;52.188;5.598;2023-10-09T10:50:13;20.70;99.90
19138;DHT22;68178;52.188;5.598;2023-10-09T10:53:31;20.70;99.90
19138;DHT22;68178;52.188;5.598;2023-10-09T10:56:17;20.60;99.90
19138;DHT22;68178;52.188;5.598;2023-10-09T10:58:51;20.60;99.90
19138;DHT22;68178;52.188;5.598;2023-10-09T11:01:32;20.70;99.90
19138;DHT22;68178;52.188;5.598;2023-10-09T11:04:17;20.70;99.90
19138;DHT22;68178;52.188;5.598;2023-10-09T11:06:51;20.80;99.90
19138;DHT22;68178;52.188;5.598;2023-10-09T11:09:17;20.80;99.90
19138;DHT22;68178;52.188;5.598;2023-10-09T11:12:08;20.70;99.90
19138;DHT22;68178;52.188;5.598;2023-10-09T11:15:00;20.60;99.90
19138;DHT22;68178;52.188;5.598;2023-10-09T11:17:33;20.60;99.90
19138;DHT22;68178;52.188;5.598;2023-10-09T11:20:19;20.60;99.90
19138;DHT22;68178;52.188;5.598;2023-10-09T11:22:52;20.80;99.90
19138;DHT22;68178;52.188;5.598;2023-10-09T11:25:40;20.80;99.90
19138;DHT22;68178;52.188;5.598;2023-10-09T11:28:22;20.90;99.90
19138;DHT22;68178;52.188;5.598;2023-10-09T11:31:08;20.90;99.90
19138;DHT22;68178;52.188;5.598;2023-10-09T11:33:49;20.80;99.90
19138;DHT22;68178;52.188;5.598;2023-10-09T11:36:20;20.80;99.90
19138;DHT22;68178;52.188;5.598;2023-10-09T11:38:58;20.90;99.90
19138;DHT22;68178;52.188;5.598;2023-10-09T11:41:43;21.00;99.90
19138;DHT22;68178;52.188;5.598;2023-10-09T11:44:10;21.10;99.90
19138;DHT22;68178;52.188;5.598;2023-10-09T11:47:02;21.30;99.90
19138;DHT22;68178;52.188;5.598;2023-10-09T11:49:53;21.10;99.90
19138;DHT22;68178;52.188;5.598;2023-10-09T11:52:31;21.00;99.90
19138;DHT22;68178;52.188;5.598;2023-10-09T11:55:03;20.70;99.90
19138;DHT22;68178;52.188;5.598;2023-10-09T11:57:32;20.60;99.90
19138;DHT22;68178;52.188;5.598;2023-10-09T11:59:59;20.60;99.90
19138;DHT22;68178;52.188;5.598;2023-10-09T12:02:26;20.60;99.90
19138;DHT22;68178;52.188;5.598;2023-10-09T12:04:51;20.50;99.90
19138;DHT22;68178;52.188;5.598;2023-10-09T12:07:19;20.50;99.90
19138;DHT22;68178;52.188;5.598;2023-10-09T12:09:48;20.50;99.90
19138;DHT22;68178;52.188;5.598;2023-10-09T12:12:14;20.50;99.90
19138;DHT22;68178;52.188;5.598;2023-10-09T12:14:39;20.50;99.90
19138;DHT22;68178;52.188;5.598;2023-10-09T12:17:07;20.40;99.90
19138;DHT22;68178;52.188;5.598;2023-10-09T12:22:00;20.50;99.90
19138;DHT22;68178;52.188;5.598;2023-10-09T12:24:30;20.50;99.90
19138;DHT22;68178;52.188;5.598;2023-10-09T12:26:59;20.50;99.90
19138;DHT22;68178;52.188;5.598;2023-10-09T12:29:24;20.50;99.90
19138;DHT22;68178;52.188;5.598;2023-10-09T12:31:58;20.40;99.90
19138;DHT22;68178;52.188;5.598;2023-10-09T12:34:27;20.40;99.90
19138;DHT22;68178;52.188;5.598;2023-10-09T12:36:56;20.40;99.90
19138;DHT22;68178;52.188;5.598;2023-10-09T12:39:22;20.40;99.90
19138;DHT22;68178;52.188;5.598;2023-10-09T12:41:48;20.40;99.90
19138;DHT22;68178;52.188;5.598;2023-10-09T12:44:15;20.40;99.90
19138;DHT22;68178;52.188;5.598;2023-10-09T12:46:43;20.30;99.90
19138;DHT22;68178;52.188;5.598;2023-10-09T12:49:21;20.50;99.90
19138;DHT22;68178;52.188;5.598;2023-10-09T12:51:54;20.40;99.90
19138;DHT22;68178;52.188;5.598;2023-10-09T12:54:21;20.30;99.90
19138;DHT22;68178;52.188;5.598;2023-10-09T12:56:52;20.30;99.90
19138;DHT22;68178;52.188;5.598;2023-10-09T12:59:18;20.30;99.90
19138;DHT22;68178;52.188;5.598;2023-10-09T13:01:45;20.40;99.90
19138;DHT22;68178;52.188;5.598;2023-10-09T13:04:11;20.40;99.90
19138;DHT22;68178;52.188;5.598;2023-10-09T13:06:40;20.40;99.90
19138;DHT22;68178;52.188;5.598;2023-10-09T13:09:10;20.30;99.90
19138;DHT22;68178;52.188;5.598;2023-10-09T13:11:36;20.30;99.90
19138;DHT22;68178;52.188;5.598;2023-10-09T13:14:02;20.30;99.90
19138;DHT22;68178;52.188;5.598;2023-10-09T13:16:37;20.30;99.90
19138;DHT22;68178;52.188;5.598;2023-10-09T13:19:03;20.30;99.90
19138;DHT22;68178;52.188;5.598;2023-10-09T13:21:35;20.30;99.90
19138;DHT22;68178;52.188;5.598;2023-10-09T13:24:05;20.40;99.90
19138;DHT22;68178;52.188;5.598;2023-10-09T13:26:30;20.30;99.90
19138;DHT22;68178;52.188;5.598;2023-10-09T13:28:58;20.40;99.90
19138;DHT22;68178;52.188;5.598;2023-10-09T13:31:25;20.40;99.90
19138;DHT22;68178;52.188;5.598;2023-10-09T13:33:54;20.50;99.90
19138;DHT22;68178;52.188;5.598;2023-10-09T13:36:24;20.50;99.90
19138;DHT22;68178;52.188;5.598;2023-10-09T13:38:55;20.40;99.90
19138;DHT22;68178;52.188;5.598;2023-10-09T13:41:22;20.40;99.90
19138;DHT22;68178;52.188;5.598;2023-10-09T13:43:51;20.40;99.90
19138;DHT22;68178;52.188;5.598;2023-10-09T13:46:17;20.20;99.90
19138;DHT22;68178;52.188;5.598;2023-10-09T13:48:43;20.30;99.90
19138;DHT22;68178;52.188;5.598;2023-10-09T13:51:11;20.30;99.90
19138;DHT22;68178;52.188;5.598;2023-10-09T13:53:43;20.30;99.90
19138;DHT22;68178;52.188;5.598;2023-10-09T13:56:17;20.10;99.90
19138;DHT22;68178;52.188;5.598;2023-10-09T13:58:50;20.10;99.90
19138;DHT22;68178;52.188;5.598;2023-10-09T14:01:20;20.10;99.90
19138;DHT22;68178;52.188;5.598;2023-10-09T14:03:59;20.10;99.90
19138;DHT22;68178;52.188;5.598;2023-10-09T14:06:25;20.10;99.90
19138;DHT22;68178;52.188;5.598;2023-10-09T14:09:02;19.90;99.90
19138;DHT22;68178;52.188;5.598;2023-10-09T14:11:31;20.00;99.90
19138;DHT22;68178;52.188;5.598;2023-10-09T14:13:57;20.00;99.90
19138;DHT22;68178;52.188;5.598;2023-10-09T14:16:27;19.90;99.90
19138;DHT22;68178;52.188;5.598;2023-10-09T14:18:56;20.00;99.90
19138;DHT22;68178;52.188;5.598;2023-10-09T14:21:28;20.00;99.90
19138;DHT22;68178;52.188;5.598;2023-10-09T14:23:56;20.00;99.90
19138;DHT22;68178;52.188;5.598;2023-10-09T14:26:26;19.90;99.90
19138;DHT22;68178;52.188;5.598;2023-10-09T14:28:52;20.00;99.90
19138;DHT22;68178;52.188;5.598;2023-10-09T14:31:19;20.10;99.90
19138;DHT22;68178;52.188;5.598;2023-10-09T14:33:52;20.20;99.90
19138;DHT22;68178;52.188;5.598;2023-10-09T14:36:19;20.30;99.90
19138;DHT22;68178;52.188;5.598;2023-10-09T14:38:48;20.30;99.90
19138;DHT22;68178;52.188;5.598;2023-10-09T14:41:18;20.50;99.90
19138;DHT22;68178;52.188;5.598;2023-10-09T14:43:46;20.50;99.90
19138;DHT22;68178;52.188;5.598;2023-10-09T14:46:14;20.40;99.90
19138;DHT22;68178;52.188;5.598;2023-10-09T14:48:40;20.40;99.90
19138;DHT22;68178;52.188;5.598;2023-10-09T14:51:06;20.30;99.90
19138;DHT22;68178;52.188;5.598;2023-10-09T14:53:33;20.30;99.90
19138;DHT22;68178;52.188;5.598;2023-10-09T14:56:00;20.30;99.90
19138;DHT22;68178;52.188;5.598;2023-10-09T14:58:27;20.20;99.90
19138;DHT22;68178;52.188;5.598;2023-10-09T15:00:55;20.20;99.90
19138;DHT22;68178;52.188;5.598;2023-10-09T15:03:21;20.30;99.90
19138;DHT22;68178;52.188;5.598;2023-10-09T15:05:47;20.40;99.90
19138;DHT22;68178;52.188;5.598;2023-10-09T15:08:13;20.40;99.90
19138;DHT22;68178;52.188;5.598;2023-10-09T15:10:49;20.40;99.90
19138;DHT22;68178;52.188;5.598;2023-10-09T15:13:17;20.30;99.90
19138;DHT22;68178;52.188;5.598;2023-10-09T15:15:44;20.40;99.90
19138;DHT22;68178;52.188;5.598;2023-10-09T15:18:11;20.40;99.90
19138;DHT22;68178;52.188;5.598;2023-10-09T15:20:40;20.40;99.90
19138;DHT22;68178;52.188;5.598;2023-10-09T15:23:08;20.40;99.90
19138;DHT22;68178;52.188;5.598;2023-10-09T15:25:34;20.40;99.90
19138;DHT22;68178;52.188;5.598;2023-10-09T15:28:03;20.30;99.90
19138;DHT22;68178;52.188;5.598;2023-10-09T15:30:29;20.30;99.90
19138;DHT22;68178;52.188;5.598;2023-10-09T15:32:57;20.30;99.90
19138;DHT22;68178;52.188;5.598;2023-10-09T15:35:23;20.30;99.90
19138;DHT22;68178;52.188;5.598;2023-10-09T15:37:49;20.20;99.90
19138;DHT22;68178;52.188;5.598;2023-10-09T15:40:18;20.10;99.90
19138;DHT22;68178;52.188;5.598;2023-10-09T15:42:48;20.10;99.90
19138;DHT22;68178;52.188;5.598;2023-10-09T15:45:21;20.20;99.90
19138;DHT22;68178;52.188;5.598;2023-10-09T15:47:48;20.20;99.90
19138;DHT22;68178;52.188;5.598;2023-10-09T15:50:16;20.10;99.90
19138;DHT22;68178;52.188;5.598;2023-10-09T15:52:42;20.10;99.90
19138;DHT22;68178;52.188;5.598;2023-10-09T15:55:08;20.10;99.90
19138;DHT22;68178;52.188;5.598;2023-10-09T15:57:40;20.00;99.90
19138;DHT22;68178;52.188;5.598;2023-10-09T16:00:07;19.90;99.90
19138;DHT22;68178;52.188;5.598;2023-10-09T16:02:40;19.90;99.90
19138;DHT22;68178;52.188;5.598;2023-10-09T16:05:07;19.90;99.90
19138;DHT22;68178;52.188;5.598;2023-10-09T16:07:35;19.90;99.90
19138;DHT22;68178;52.188;5.598;2023-10-09T16:10:03;19.80;99.90
19138;DHT22;68178;52.188;5.598;2023-10-09T16:12:31;19.90;99.90
19138;DHT22;68178;52.188;5.598;2023-10-09T16:14:57;20.00;99.90
19138;DHT22;68178;52.188;5.598;2023-10-09T16:17:22;20.00;99.90
19138;DHT22;68178;52.188;5.598;2023-10-09T16:19:51;20.00;99.90
19138;DHT22;68178;52.188;5.598;2023-10-09T16:22:17;20.00;99.90
19138;DHT22;68178;52.188;5.598;2023-10-09T16:24:43;20.00;99.90
19138;DHT22;68178;52.188;5.598;2023-10-09T16:27:12;19.90;99.90
19138;DHT22;68178;52.188;5.598;2023-10-09T16:29:40;19.90;99.90
19138;DHT22;68178;52.188;5.598;2023-10-09T16:32:06;19.80;99.90
19138;DHT22;68178;52.188;5.598;2023-10-09T16:34:32;19.90;99.90